Terminal Aerodrome Forecast
Issued by NWS

Home | Current Version | Previous Version | Text Only | Print | Product List | Glossary On
Versions: 1 2 3 4 5 6 7 8 9 10 11 12 13 14 15 16 17 18 19 20 21
395
FTUS41 KLWX 292337
TAFMTN
TAF
KMTN 292337Z 3000/3024 35009KT P6SM SCT250
     FM300500 03010KT P6SM SCT150
     FM301300 05006KT P6SM BKN050
     FM301700 12006KT P6SM OVC040
      AMD NOT SKED 3002/3012=

USA.gov is the U.S. government's official web portal to all federal, state and local government web resources and services.